sensor_id;sensor_type;location;lat;lon;timestamp;P1;durP1;ratioP1;P2;durP2;ratioP2
12986;SDS011;58897;51.960;5.582;2023-07-28T00:01:54;15.20;;;7.10;;
12986;SDS011;58897;51.960;5.582;2023-07-28T00:04:21;23.37;;;8.43;;
12986;SDS011;58897;51.960;5.582;2023-07-28T00:06:47;16.97;;;7.27;;
12986;SDS011;58897;51.960;5.582;2023-07-28T00:09:14;16.27;;;6.60;;
12986;SDS011;58897;51.960;5.582;2023-07-28T00:11:40;22.20;;;9.60;;
12986;SDS011;58897;51.960;5.582;2023-07-28T00:14:07;20.70;;;7.70;;
12986;SDS011;58897;51.960;5.582;2023-07-28T00:16:33;29.17;;;10.23;;
12986;SDS011;58897;51.960;5.582;2023-07-28T00:19:00;24.73;;;8.20;;
12986;SDS011;58897;51.960;5.582;2023-07-28T00:21:27;21.97;;;8.03;;
12986;SDS011;58897;51.960;5.582;2023-07-28T00:23:54;17.73;;;7.13;;
12986;SDS011;58897;51.960;5.582;2023-07-28T00:26:20;23.13;;;8.63;;
12986;SDS011;58897;51.960;5.582;2023-07-28T00:28:47;13.67;;;6.40;;
12986;SDS011;58897;51.960;5.582;2023-07-28T00:31:13;19.87;;;7.37;;
12986;SDS011;58897;51.960;5.582;2023-07-28T00:33:40;16.93;;;6.73;;
12986;SDS011;58897;51.960;5.582;2023-07-28T00:36:07;20.50;;;7.47;;
12986;SDS011;58897;51.960;5.582;2023-07-28T00:38:33;19.60;;;7.03;;
12986;SDS011;58897;51.960;5.582;2023-07-28T00:41:00;16.87;;;6.80;;
12986;SDS011;58897;51.960;5.582;2023-07-28T00:43:26;15.07;;;6.83;;
12986;SDS011;58897;51.960;5.582;2023-07-28T00:45:53;19.40;;;7.20;;
12986;SDS011;58897;51.960;5.582;2023-07-28T00:48:20;19.23;;;7.37;;
12986;SDS011;58897;51.960;5.582;2023-07-28T00:50:47;23.60;;;10.43;;
12986;SDS011;58897;51.960;5.582;2023-07-28T00:53:15;21.63;;;7.63;;
12986;SDS011;58897;51.960;5.582;2023-07-28T00:55:42;20.33;;;7.53;;
12986;SDS011;58897;51.960;5.582;2023-07-28T00:58:09;21.70;;;8.97;;
12986;SDS011;58897;51.960;5.582;2023-07-28T01:00:35;25.03;;;8.57;;
12986;SDS011;58897;51.960;5.582;2023-07-28T01:03:02;25.03;;;9.33;;
12986;SDS011;58897;51.960;5.582;2023-07-28T01:11:22;21.70;;;8.43;;
12986;SDS011;58897;51.960;5.582;2023-07-28T01:13:48;20.50;;;7.73;;
12986;SDS011;58897;51.960;5.582;2023-07-28T01:16:15;20.97;;;8.23;;
12986;SDS011;58897;51.960;5.582;2023-07-28T01:18:41;21.73;;;7.83;;
12986;SDS011;58897;51.960;5.582;2023-07-28T01:21:09;18.13;;;7.80;;
12986;SDS011;58897;51.960;5.582;2023-07-28T01:23:59;19.80;;;8.07;;
12986;SDS011;58897;51.960;5.582;2023-07-28T01:26:35;21.17;;;9.03;;
12986;SDS011;58897;51.960;5.582;2023-07-28T01:29:03;22.50;;;8.77;;
12986;SDS011;58897;51.960;5.582;2023-07-28T01:31:31;23.47;;;8.70;;
12986;SDS011;58897;51.960;5.582;2023-07-28T01:33:58;19.10;;;7.60;;
12986;SDS011;58897;51.960;5.582;2023-07-28T01:36:25;27.73;;;10.40;;
12986;SDS011;58897;51.960;5.582;2023-07-28T01:38:51;21.03;;;8.37;;
12986;SDS011;58897;51.960;5.582;2023-07-28T01:41:18;24.97;;;9.37;;
12986;SDS011;58897;51.960;5.582;2023-07-28T01:43:44;19.10;;;7.80;;
12986;SDS011;58897;51.960;5.582;2023-07-28T01:46:11;23.70;;;9.00;;
12986;SDS011;58897;51.960;5.582;2023-07-28T01:48:37;25.80;;;9.27;;
12986;SDS011;58897;51.960;5.582;2023-07-28T01:51:04;22.63;;;8.17;;
12986;SDS011;58897;51.960;5.582;2023-07-28T01:53:30;24.43;;;9.03;;
12986;SDS011;58897;51.960;5.582;2023-07-28T01:55:57;27.27;;;9.93;;
12986;SDS011;58897;51.960;5.582;2023-07-28T01:58:23;25.27;;;8.70;;
12986;SDS011;58897;51.960;5.582;2023-07-28T02:00:50;27.40;;;10.47;;
12986;SDS011;58897;51.960;5.582;2023-07-28T02:03:17;19.73;;;7.73;;
12986;SDS011;58897;51.960;5.582;2023-07-28T02:05:43;27.63;;;10.47;;
12986;SDS011;58897;51.960;5.582;2023-07-28T02:08:10;22.30;;;8.07;;
12986;SDS011;58897;51.960;5.582;2023-07-28T02:10:37;29.40;;;10.57;;
12986;SDS011;58897;51.960;5.582;2023-07-28T02:13:04;23.70;;;8.83;;
12986;SDS011;58897;51.960;5.582;2023-07-28T02:15:30;24.33;;;8.63;;
12986;SDS011;58897;51.960;5.582;2023-07-28T02:17:57;25.70;;;9.00;;
12986;SDS011;58897;51.960;5.582;2023-07-28T02:20:23;25.10;;;9.13;;
12986;SDS011;58897;51.960;5.582;2023-07-28T02:22:50;27.50;;;9.07;;
12986;SDS011;58897;51.960;5.582;2023-07-28T02:25:16;24.33;;;8.87;;
12986;SDS011;58897;51.960;5.582;2023-07-28T02:27:43;31.27;;;10.03;;
12986;SDS011;58897;51.960;5.582;2023-07-28T02:30:09;22.93;;;9.50;;
12986;SDS011;58897;51.960;5.582;2023-07-28T02:32:36;35.90;;;13.60;;
12986;SDS011;58897;51.960;5.582;2023-07-28T02:35:03;22.73;;;9.33;;
12986;SDS011;58897;51.960;5.582;2023-07-28T02:37:30;27.20;;;9.67;;
12986;SDS011;58897;51.960;5.582;2023-07-28T02:39:56;26.43;;;10.93;;
12986;SDS011;58897;51.960;5.582;2023-07-28T02:42:23;20.40;;;8.90;;
12986;SDS011;58897;51.960;5.582;2023-07-28T02:44:51;25.37;;;9.83;;
12986;SDS011;58897;51.960;5.582;2023-07-28T02:47:17;23.03;;;8.77;;
12986;SDS011;58897;51.960;5.582;2023-07-28T02:49:44;30.17;;;10.80;;
12986;SDS011;58897;51.960;5.582;2023-07-28T02:52:11;23.87;;;9.87;;
12986;SDS011;58897;51.960;5.582;2023-07-28T02:54:38;25.87;;;9.47;;
12986;SDS011;58897;51.960;5.582;2023-07-28T02:57:05;27.67;;;10.53;;
12986;SDS011;58897;51.960;5.582;2023-07-28T02:59:32;40.13;;;13.50;;
12986;SDS011;58897;51.960;5.582;2023-07-28T03:01:58;26.17;;;10.33;;
12986;SDS011;58897;51.960;5.582;2023-07-28T03:04:25;31.63;;;11.33;;
12986;SDS011;58897;51.960;5.582;2023-07-28T03:06:51;31.27;;;12.30;;
12986;SDS011;58897;51.960;5.582;2023-07-28T03:09:18;31.63;;;11.97;;
12986;SDS011;58897;51.960;5.582;2023-07-28T03:11:45;35.40;;;12.23;;
12986;SDS011;58897;51.960;5.582;2023-07-28T03:14:11;28.67;;;11.00;;
12986;SDS011;58897;51.960;5.582;2023-07-28T03:16:40;32.17;;;12.47;;
12986;SDS011;58897;51.960;5.582;2023-07-28T03:19:07;25.43;;;11.23;;
12986;SDS011;58897;51.960;5.582;2023-07-28T03:21:33;27.97;;;10.77;;
12986;SDS011;58897;51.960;5.582;2023-07-28T03:24:04;29.60;;;12.00;;
12986;SDS011;58897;51.960;5.582;2023-07-28T03:26:30;29.00;;;10.63;;
12986;SDS011;58897;51.960;5.582;2023-07-28T03:28:57;28.97;;;11.47;;
12986;SDS011;58897;51.960;5.582;2023-07-28T03:31:23;26.30;;;10.57;;
12986;SDS011;58897;51.960;5.582;2023-07-28T03:33:50;29.70;;;11.50;;
12986;SDS011;58897;51.960;5.582;2023-07-28T03:36:17;28.80;;;11.67;;
12986;SDS011;58897;51.960;5.582;2023-07-28T03:38:45;30.03;;;11.57;;
12986;SDS011;58897;51.960;5.582;2023-07-28T03:41:13;29.13;;;11.43;;
12986;SDS011;58897;51.960;5.582;2023-07-28T03:43:40;39.00;;;13.70;;
12986;SDS011;58897;51.960;5.582;2023-07-28T03:46:07;26.97;;;11.47;;
12986;SDS011;58897;51.960;5.582;2023-07-28T03:48:34;34.70;;;13.60;;
12986;SDS011;58897;51.960;5.582;2023-07-28T03:51:00;27.80;;;11.83;;
12986;SDS011;58897;51.960;5.582;2023-07-28T03:53:27;31.10;;;11.80;;
12986;SDS011;58897;51.960;5.582;2023-07-28T03:55:53;31.93;;;12.27;;
12986;SDS011;58897;51.960;5.582;2023-07-28T03:58:24;32.57;;;12.27;;
12986;SDS011;58897;51.960;5.582;2023-07-28T04:00:54;34.53;;;14.80;;
12986;SDS011;58897;51.960;5.582;2023-07-28T04:03:21;30.13;;;12.03;;
12986;SDS011;58897;51.960;5.582;2023-07-28T04:05:48;34.00;;;12.77;;
12986;SDS011;58897;51.960;5.582;2023-07-28T04:08:15;31.13;;;11.60;;
12986;SDS011;58897;51.960;5.582;2023-07-28T04:10:41;46.10;;;16.70;;
12986;SDS011;58897;51.960;5.582;2023-07-28T04:13:08;30.27;;;11.37;;
12986;SDS011;58897;51.960;5.582;2023-07-28T04:15:34;41.70;;;14.43;;
12986;SDS011;58897;51.960;5.582;2023-07-28T04:18:01;32.73;;;12.33;;
12986;SDS011;58897;51.960;5.582;2023-07-28T04:20:28;41.83;;;15.67;;
12986;SDS011;58897;51.960;5.582;2023-07-28T04:22:54;33.37;;;12.80;;
12986;SDS011;58897;51.960;5.582;2023-07-28T04:25:21;36.90;;;13.73;;
12986;SDS011;58897;51.960;5.582;2023-07-28T04:27:47;35.03;;;14.33;;
12986;SDS011;58897;51.960;5.582;2023-07-28T04:30:14;34.43;;;12.47;;
12986;SDS011;58897;51.960;5.582;2023-07-28T04:32:41;30.73;;;12.50;;
12986;SDS011;58897;51.960;5.582;2023-07-28T04:35:07;31.07;;;12.80;;
12986;SDS011;58897;51.960;5.582;2023-07-28T04:37:34;31.50;;;13.37;;
12986;SDS011;58897;51.960;5.582;2023-07-28T04:40:00;42.10;;;16.40;;
12986;SDS011;58897;51.960;5.582;2023-07-28T04:42:27;30.57;;;13.83;;
12986;SDS011;58897;51.960;5.582;2023-07-28T04:44:53;36.60;;;14.47;;
12986;SDS011;58897;51.960;5.582;2023-07-28T04:47:20;32.30;;;14.47;;
12986;SDS011;58897;51.960;5.582;2023-07-28T04:49:46;36.57;;;15.70;;
12986;SDS011;58897;51.960;5.582;2023-07-28T04:52:13;37.00;;;14.40;;
12986;SDS011;58897;51.960;5.582;2023-07-28T04:54:39;39.73;;;16.07;;
12986;SDS011;58897;51.960;5.582;2023-07-28T04:57:06;36.67;;;15.67;;
12986;SDS011;58897;51.960;5.582;2023-07-28T04:59:32;34.80;;;15.63;;
12986;SDS011;58897;51.960;5.582;2023-07-28T05:01:59;48.33;;;17.40;;
12986;SDS011;58897;51.960;5.582;2023-07-28T05:04:25;39.80;;;15.83;;
12986;SDS011;58897;51.960;5.582;2023-07-28T05:06:52;49.83;;;16.90;;
12986;SDS011;58897;51.960;5.582;2023-07-28T05:09:19;41.07;;;15.70;;
12986;SDS011;58897;51.960;5.582;2023-07-28T05:11:45;42.33;;;16.83;;
12986;SDS011;58897;51.960;5.582;2023-07-28T05:14:14;35.67;;;15.27;;
12986;SDS011;58897;51.960;5.582;2023-07-28T05:16:40;38.67;;;14.80;;
12986;SDS011;58897;51.960;5.582;2023-07-28T05:19:07;37.00;;;15.47;;
12986;SDS011;58897;51.960;5.582;2023-07-28T05:21:34;35.90;;;15.33;;
12986;SDS011;58897;51.960;5.582;2023-07-28T05:24:01;37.67;;;15.20;;
12986;SDS011;58897;51.960;5.582;2023-07-28T05:26:27;30.23;;;14.10;;
12986;SDS011;58897;51.960;5.582;2023-07-28T05:28:54;45.33;;;15.90;;
12986;SDS011;58897;51.960;5.582;2023-07-28T05:31:20;36.97;;;14.87;;
12986;SDS011;58897;51.960;5.582;2023-07-28T05:33:47;35.03;;;13.80;;
12986;SDS011;58897;51.960;5.582;2023-07-28T05:36:14;34.67;;;14.53;;
12986;SDS011;58897;51.960;5.582;2023-07-28T05:38:40;36.53;;;15.17;;
12986;SDS011;58897;51.960;5.582;2023-07-28T05:41:07;32.07;;;14.30;;
12986;SDS011;58897;51.960;5.582;2023-07-28T05:43:33;35.50;;;15.07;;
12986;SDS011;58897;51.960;5.582;2023-07-28T05:46:00;41.17;;;15.93;;
12986;SDS011;58897;51.960;5.582;2023-07-28T05:48:28;35.77;;;15.07;;
12986;SDS011;58897;51.960;5.582;2023-07-28T05:50:55;42.60;;;17.00;;
12986;SDS011;58897;51.960;5.582;2023-07-28T05:53:22;38.97;;;15.93;;
12986;SDS011;58897;51.960;5.582;2023-07-28T05:55:48;36.93;;;15.87;;
12986;SDS011;58897;51.960;5.582;2023-07-28T05:58:15;38.80;;;15.00;;
12986;SDS011;58897;51.960;5.582;2023-07-28T06:00:42;36.27;;;15.70;;
12986;SDS011;58897;51.960;5.582;2023-07-28T06:03:11;41.43;;;16.50;;
12986;SDS011;58897;51.960;5.582;2023-07-28T06:05:39;35.70;;;14.53;;
12986;SDS011;58897;51.960;5.582;2023-07-28T06:08:09;36.73;;;15.57;;
12986;SDS011;58897;51.960;5.582;2023-07-28T06:10:36;35.03;;;14.27;;
12986;SDS011;58897;51.960;5.582;2023-07-28T06:13:03;31.93;;;15.13;;
12986;SDS011;58897;51.960;5.582;2023-07-28T06:15:30;34.37;;;13.87;;
12986;SDS011;58897;51.960;5.582;2023-07-28T06:17:57;41.73;;;16.13;;
12986;SDS011;58897;51.960;5.582;2023-07-28T06:20:23;36.43;;;14.43;;
12986;SDS011;58897;51.960;5.582;2023-07-28T06:22:50;30.67;;;15.60;;
12986;SDS011;58897;51.960;5.582;2023-07-28T06:25:16;32.60;;;14.00;;
12986;SDS011;58897;51.960;5.582;2023-07-28T06:27:43;36.77;;;14.23;;
12986;SDS011;58897;51.960;5.582;2023-07-28T06:30:10;37.10;;;16.03;;
12986;SDS011;58897;51.960;5.582;2023-07-28T06:32:37;42.57;;;17.63;;
12986;SDS011;58897;51.960;5.582;2023-07-28T06:35:03;39.10;;;15.93;;
12986;SDS011;58897;51.960;5.582;2023-07-28T06:37:31;39.23;;;16.00;;
12986;SDS011;58897;51.960;5.582;2023-07-28T06:39:57;40.43;;;15.07;;
12986;SDS011;58897;51.960;5.582;2023-07-28T06:42:24;29.93;;;14.27;;
12986;SDS011;58897;51.960;5.582;2023-07-28T06:44:52;36.13;;;14.40;;
12986;SDS011;58897;51.960;5.582;2023-07-28T06:47:19;53.20;;;18.57;;
12986;SDS011;58897;51.960;5.582;2023-07-28T06:49:45;42.43;;;16.13;;
12986;SDS011;58897;51.960;5.582;2023-07-28T06:52:12;35.43;;;15.40;;
12986;SDS011;58897;51.960;5.582;2023-07-28T06:54:38;49.87;;;16.40;;
12986;SDS011;58897;51.960;5.582;2023-07-28T06:57:05;39.80;;;15.50;;
12986;SDS011;58897;51.960;5.582;2023-07-28T06:59:32;44.97;;;16.63;;
12986;SDS011;58897;51.960;5.582;2023-07-28T07:01:59;40.43;;;16.30;;
12986;SDS011;58897;51.960;5.582;2023-07-28T07:04:26;53.93;;;18.93;;
12986;SDS011;58897;51.960;5.582;2023-07-28T07:06:53;56.83;;;19.03;;
12986;SDS011;58897;51.960;5.582;2023-07-28T07:09:19;48.30;;;18.27;;
12986;SDS011;58897;51.960;5.582;2023-07-28T07:11:46;37.20;;;14.33;;
12986;SDS011;58897;51.960;5.582;2023-07-28T07:14:13;45.13;;;17.57;;
12986;SDS011;58897;51.960;5.582;2023-07-28T07:16:40;42.27;;;16.07;;
12986;SDS011;58897;51.960;5.582;2023-07-28T07:19:07;38.73;;;15.13;;
12986;SDS011;58897;51.960;5.582;2023-07-28T07:21:35;38.90;;;14.23;;
12986;SDS011;58897;51.960;5.582;2023-07-28T07:24:02;44.80;;;17.30;;
12986;SDS011;58897;51.960;5.582;2023-07-28T07:26:30;43.03;;;15.67;;
12986;SDS011;58897;51.960;5.582;2023-07-28T07:28:57;39.03;;;14.77;;
12986;SDS011;58897;51.960;5.582;2023-07-28T07:31:24;42.60;;;15.70;;
12986;SDS011;58897;51.960;5.582;2023-07-28T07:33:51;37.07;;;14.87;;
12986;SDS011;58897;51.960;5.582;2023-07-28T07:36:18;36.03;;;14.23;;
12986;SDS011;58897;51.960;5.582;2023-07-28T07:38:45;40.90;;;15.03;;
12986;SDS011;58897;51.960;5.582;2023-07-28T07:41:13;51.17;;;16.53;;
12986;SDS011;58897;51.960;5.582;2023-07-28T07:43:46;40.53;;;14.77;;
12986;SDS011;58897;51.960;5.582;2023-07-28T07:46:14;37.20;;;14.00;;
12986;SDS011;58897;51.960;5.582;2023-07-28T07:48:41;39.17;;;15.10;;
12986;SDS011;58897;51.960;5.582;2023-07-28T07:51:08;34.87;;;14.03;;
12986;SDS011;58897;51.960;5.582;2023-07-28T07:53:35;27.67;;;12.27;;
12986;SDS011;58897;51.960;5.582;2023-07-28T07:56:05;37.13;;;14.33;;
12986;SDS011;58897;51.960;5.582;2023-07-28T07:58:33;42.20;;;15.00;;
12986;SDS011;58897;51.960;5.582;2023-07-28T08:01:00;34.70;;;13.10;;
12986;SDS011;58897;51.960;5.582;2023-07-28T08:03:27;28.30;;;12.07;;
12986;SDS011;58897;51.960;5.582;2023-07-28T08:05:53;35.73;;;13.40;;
12986;SDS011;58897;51.960;5.582;2023-07-28T08:08:20;32.93;;;13.80;;
12986;SDS011;58897;51.960;5.582;2023-07-28T08:10:48;40.37;;;15.33;;
12986;SDS011;58897;51.960;5.582;2023-07-28T08:13:16;35.73;;;14.20;;
12986;SDS011;58897;51.960;5.582;2023-07-28T08:15:43;38.07;;;14.47;;
12986;SDS011;58897;51.960;5.582;2023-07-28T08:18:10;31.00;;;13.27;;
12986;SDS011;58897;51.960;5.582;2023-07-28T08:20:38;35.27;;;14.17;;
12986;SDS011;58897;51.960;5.582;2023-07-28T08:23:05;40.50;;;14.97;;
12986;SDS011;58897;51.960;5.582;2023-07-28T08:25:32;30.63;;;13.77;;
12986;SDS011;58897;51.960;5.582;2023-07-28T08:28:00;27.10;;;12.50;;
12986;SDS011;58897;51.960;5.582;2023-07-28T08:30:27;39.77;;;14.17;;
12986;SDS011;58897;51.960;5.582;2023-07-28T08:32:54;24.47;;;12.23;;
12986;SDS011;58897;51.960;5.582;2023-07-28T08:35:20;24.87;;;12.20;;
12986;SDS011;58897;51.960;5.582;2023-07-28T08:37:47;39.93;;;14.43;;
12986;SDS011;58897;51.960;5.582;2023-07-28T08:40:14;33.10;;;13.03;;
12986;SDS011;58897;51.960;5.582;2023-07-28T08:42:40;31.73;;;13.07;;
12986;SDS011;58897;51.960;5.582;2023-07-28T08:45:07;29.20;;;12.70;;
12986;SDS011;58897;51.960;5.582;2023-07-28T08:47:35;26.93;;;12.47;;
12986;SDS011;58897;51.960;5.582;2023-07-28T08:50:03;24.13;;;11.90;;
12986;SDS011;58897;51.960;5.582;2023-07-28T08:52:30;29.97;;;13.03;;
12986;SDS011;58897;51.960;5.582;2023-07-28T08:54:56;27.90;;;13.43;;
12986;SDS011;58897;51.960;5.582;2023-07-28T08:57:23;23.27;;;12.30;;
12986;SDS011;58897;51.960;5.582;2023-07-28T08:59:50;30.03;;;12.93;;
12986;SDS011;58897;51.960;5.582;2023-07-28T09:02:18;29.10;;;12.67;;
12986;SDS011;58897;51.960;5.582;2023-07-28T09:04:45;28.33;;;11.73;;
12986;SDS011;58897;51.960;5.582;2023-07-28T09:07:13;21.60;;;11.07;;
12986;SDS011;58897;51.960;5.582;2023-07-28T09:09:41;22.57;;;10.70;;
12986;SDS011;58897;51.960;5.582;2023-07-28T09:12:07;21.03;;;10.80;;
12986;SDS011;58897;51.960;5.582;2023-07-28T09:14:37;23.40;;;10.70;;
12986;SDS011;58897;51.960;5.582;2023-07-28T09:17:08;22.83;;;10.03;;
12986;SDS011;58897;51.960;5.582;2023-07-28T09:22:38;21.87;;;10.83;;
12986;SDS011;58897;51.960;5.582;2023-07-28T09:25:15;16.50;;;9.43;;
12986;SDS011;58897;51.960;5.582;2023-07-28T09:27:52;22.77;;;11.47;;
12986;SDS011;58897;51.960;5.582;2023-07-28T09:30:19;21.40;;;11.20;;
12986;SDS011;58897;51.960;5.582;2023-07-28T09:32:48;19.77;;;9.50;;
12986;SDS011;58897;51.960;5.582;2023-07-28T09:35:17;29.23;;;10.20;;
12986;SDS011;58897;51.960;5.582;2023-07-28T09:37:45;16.70;;;8.60;;
12986;SDS011;58897;51.960;5.582;2023-07-28T09:40:17;32.00;;;9.97;;
12986;SDS011;58897;51.960;5.582;2023-07-28T09:42:48;14.40;;;8.10;;
12986;SDS011;58897;51.960;5.582;2023-07-28T09:45:21;18.07;;;8.87;;
12986;SDS011;58897;51.960;5.582;2023-07-28T09:48:08;29.00;;;10.00;;
12986;SDS011;58897;51.960;5.582;2023-07-28T09:50:37;16.20;;;8.57;;
12986;SDS011;58897;51.960;5.582;2023-07-28T09:53:05;12.93;;;8.23;;
12986;SDS011;58897;51.960;5.582;2023-07-28T09:55:38;16.83;;;8.97;;
12986;SDS011;58897;51.960;5.582;2023-07-28T09:58:12;34.50;;;11.43;;
12986;SDS011;58897;51.960;5.582;2023-07-28T10:00:45;16.63;;;9.33;;
12986;SDS011;58897;51.960;5.582;2023-07-28T10:03:13;21.13;;;9.93;;
12986;SDS011;58897;51.960;5.582;2023-07-28T10:05:40;13.13;;;8.73;;
12986;SDS011;58897;51.960;5.582;2023-07-28T10:08:17;25.00;;;10.10;;
12986;SDS011;58897;51.960;5.582;2023-07-28T10:10:44;20.70;;;10.53;;
12986;SDS011;58897;51.960;5.582;2023-07-28T10:13:21;19.90;;;9.10;;
12986;SDS011;58897;51.960;5.582;2023-07-28T10:15:49;14.53;;;8.87;;
12986;SDS011;58897;51.960;5.582;2023-07-28T10:18:19;21.07;;;9.07;;
12986;SDS011;58897;51.960;5.582;2023-07-28T10:20:47;23.50;;;11.03;;
12986;SDS011;58897;51.960;5.582;2023-07-28T10:23:20;25.53;;;10.33;;
12986;SDS011;58897;51.960;5.582;2023-07-28T10:25:55;15.10;;;8.87;;
12986;SDS011;58897;51.960;5.582;2023-07-28T10:28:31;18.83;;;10.00;;
12986;SDS011;58897;51.960;5.582;2023-07-28T10:31:05;26.17;;;10.90;;
12986;SDS011;58897;51.960;5.582;2023-07-28T10:33:38;18.30;;;9.93;;
12986;SDS011;58897;51.960;5.582;2023-07-28T10:36:12;28.10;;;10.97;;
12986;SDS011;58897;51.960;5.582;2023-07-28T10:38:40;13.47;;;9.17;;
12986;SDS011;58897;51.960;5.582;2023-07-28T10:43:38;14.20;;;9.63;;
12986;SDS011;58897;51.960;5.582;2023-07-28T10:46:07;22.27;;;11.07;;
12986;SDS011;58897;51.960;5.582;2023-07-28T10:48:39;18.90;;;11.57;;
12986;SDS011;58897;51.960;5.582;2023-07-28T10:51:11;32.10;;;12.50;;
12986;SDS011;58897;51.960;5.582;2023-07-28T10:53:45;18.10;;;10.00;;
12986;SDS011;58897;51.960;5.582;2023-07-28T10:56:13;22.23;;;11.43;;
12986;SDS011;58897;51.960;5.582;2023-07-28T10:58:39;15.93;;;9.87;;
12986;SDS011;58897;51.960;5.582;2023-07-28T11:01:06;33.10;;;11.30;;
12986;SDS011;58897;51.960;5.582;2023-07-28T11:03:33;17.57;;;10.47;;
12986;SDS011;58897;51.960;5.582;2023-07-28T11:06:00;20.83;;;10.43;;
12986;SDS011;58897;51.960;5.582;2023-07-28T11:08:29;18.83;;;10.80;;
12986;SDS011;58897;51.960;5.582;2023-07-28T11:10:56;27.60;;;11.83;;
12986;SDS011;58897;51.960;5.582;2023-07-28T11:13:26;20.27;;;10.27;;
12986;SDS011;58897;51.960;5.582;2023-07-28T11:16:07;22.80;;;10.43;;
12986;SDS011;58897;51.960;5.582;2023-07-28T11:18:34;16.57;;;11.23;;
12986;SDS011;58897;51.960;5.582;2023-07-28T11:21:01;18.33;;;11.00;;
12986;SDS011;58897;51.960;5.582;2023-07-28T11:23:29;23.53;;;12.03;;
12986;SDS011;58897;51.960;5.582;2023-07-28T11:25:58;18.30;;;11.27;;
12986;SDS011;58897;51.960;5.582;2023-07-28T11:28:25;19.10;;;10.90;;
12986;SDS011;58897;51.960;5.582;2023-07-28T11:30:55;18.07;;;10.63;;
12986;SDS011;58897;51.960;5.582;2023-07-28T11:33:24;18.37;;;10.13;;
12986;SDS011;58897;51.960;5.582;2023-07-28T11:35:51;17.00;;;10.50;;
12986;SDS011;58897;51.960;5.582;2023-07-28T11:38:20;19.47;;;11.50;;
12986;SDS011;58897;51.960;5.582;2023-07-28T11:40:48;25.80;;;13.37;;
12986;SDS011;58897;51.960;5.582;2023-07-28T11:43:16;31.27;;;12.27;;
12986;SDS011;58897;51.960;5.582;2023-07-28T11:45:46;15.80;;;9.77;;
12986;SDS011;58897;51.960;5.582;2023-07-28T11:48:13;28.77;;;12.27;;
12986;SDS011;58897;51.960;5.582;2023-07-28T11:50:41;17.20;;;11.13;;
12986;SDS011;58897;51.960;5.582;2023-07-28T11:53:11;23.23;;;10.40;;
12986;SDS011;58897;51.960;5.582;2023-07-28T11:55:38;15.77;;;9.27;;
12986;SDS011;58897;51.960;5.582;2023-07-28T11:58:06;22.40;;;9.93;;
12986;SDS011;58897;51.960;5.582;2023-07-28T12:00:34;19.40;;;10.33;;
12986;SDS011;58897;51.960;5.582;2023-07-28T12:03:05;19.07;;;9.90;;
12986;SDS011;58897;51.960;5.582;2023-07-28T12:05:38;33.47;;;10.50;;
12986;SDS011;58897;51.960;5.582;2023-07-28T12:08:08;26.13;;;9.87;;
12986;SDS011;58897;51.960;5.582;2023-07-28T12:10:35;17.23;;;10.67;;
12986;SDS011;58897;51.960;5.582;2023-07-28T12:13:05;17.20;;;10.13;;
12986;SDS011;58897;51.960;5.582;2023-07-28T12:15:39;20.63;;;10.90;;
12986;SDS011;58897;51.960;5.582;2023-07-28T12:18:15;19.63;;;9.63;;
12986;SDS011;58897;51.960;5.582;2023-07-28T12:20:48;18.47;;;11.00;;
12986;SDS011;58897;51.960;5.582;2023-07-28T12:23:17;16.60;;;9.70;;
12986;SDS011;58897;51.960;5.582;2023-07-28T12:25:48;15.73;;;8.50;;
12986;SDS011;58897;51.960;5.582;2023-07-28T12:28:16;17.43;;;9.13;;
12986;SDS011;58897;51.960;5.582;2023-07-28T12:30:46;19.20;;;9.83;;
12986;SDS011;58897;51.960;5.582;2023-07-28T12:33:15;11.17;;;6.90;;
12986;SDS011;58897;51.960;5.582;2023-07-28T12:35:45;17.13;;;8.80;;
12986;SDS011;58897;51.960;5.582;2023-07-28T12:38:16;13.17;;;8.13;;
12986;SDS011;58897;51.960;5.582;2023-07-28T12:40:46;19.03;;;10.77;;
12986;SDS011;58897;51.960;5.582;2023-07-28T12:43:15;16.63;;;8.63;;
12986;SDS011;58897;51.960;5.582;2023-07-28T12:45:45;19.87;;;9.97;;
12986;SDS011;58897;51.960;5.582;2023-07-28T12:48:14;17.97;;;9.43;;
12986;SDS011;58897;51.960;5.582;2023-07-28T12:50:44;16.87;;;9.73;;
12986;SDS011;58897;51.960;5.582;2023-07-28T12:53:10;13.57;;;7.47;;
12986;SDS011;58897;51.960;5.582;2023-07-28T12:55:43;15.33;;;8.97;;
12986;SDS011;58897;51.960;5.582;2023-07-28T12:58:12;14.83;;;8.23;;
12986;SDS011;58897;51.960;5.582;2023-07-28T13:00:42;15.53;;;8.93;;
12986;SDS011;58897;51.960;5.582;2023-07-28T13:03:12;14.20;;;7.60;;
12986;SDS011;58897;51.960;5.582;2023-07-28T13:05:39;15.87;;;8.43;;
12986;SDS011;58897;51.960;5.582;2023-07-28T13:08:10;12.37;;;6.97;;
12986;SDS011;58897;51.960;5.582;2023-07-28T13:10:36;15.37;;;7.67;;
12986;SDS011;58897;51.960;5.582;2023-07-28T13:13:06;12.90;;;7.03;;
12986;SDS011;58897;51.960;5.582;2023-07-28T13:15:39;16.00;;;9.27;;
12986;SDS011;58897;51.960;5.582;2023-07-28T13:18:06;13.70;;;7.10;;
12986;SDS011;58897;51.960;5.582;2023-07-28T13:20:32;13.13;;;7.30;;
12986;SDS011;58897;51.960;5.582;2023-07-28T13:22:59;14.30;;;7.33;;
12986;SDS011;58897;51.960;5.582;2023-07-28T13:25:25;13.77;;;7.27;;
12986;SDS011;58897;51.960;5.582;2023-07-28T13:27:52;15.10;;;7.93;;
12986;SDS011;58897;51.960;5.582;2023-07-28T13:30:19;13.57;;;7.57;;
12986;SDS011;58897;51.960;5.582;2023-07-28T13:32:45;16.37;;;8.90;;
12986;SDS011;58897;51.960;5.582;2023-07-28T13:35:12;12.93;;;6.80;;
12986;SDS011;58897;51.960;5.582;2023-07-28T13:37:41;15.73;;;8.80;;
12986;SDS011;58897;51.960;5.582;2023-07-28T13:40:07;13.67;;;7.03;;
12986;SDS011;58897;51.960;5.582;2023-07-28T13:42:38;16.73;;;8.03;;
12986;SDS011;58897;51.960;5.582;2023-07-28T13:45:04;7.83;;;5.20;;
12986;SDS011;58897;51.960;5.582;2023-07-28T13:47:31;10.70;;;5.93;;
12986;SDS011;58897;51.960;5.582;2023-07-28T13:49:58;13.33;;;6.73;;
12986;SDS011;58897;51.960;5.582;2023-07-28T13:52:25;10.53;;;5.43;;
12986;SDS011;58897;51.960;5.582;2023-07-28T13:54:52;14.53;;;6.83;;
12986;SDS011;58897;51.960;5.582;2023-07-28T13:57:21;19.10;;;7.57;;
12986;SDS011;58897;51.960;5.582;2023-07-28T13:59:48;19.90;;;8.33;;
12986;SDS011;58897;51.960;5.582;2023-07-28T14:02:18;11.77;;;5.47;;
12986;SDS011;58897;51.960;5.582;2023-07-28T14:04:45;16.53;;;7.37;;
12986;SDS011;58897;51.960;5.582;2023-07-28T14:07:11;14.60;;;6.20;;
12986;SDS011;58897;51.960;5.582;2023-07-28T14:09:38;11.77;;;5.50;;
12986;SDS011;58897;51.960;5.582;2023-07-28T14:12:05;14.43;;;6.17;;
12986;SDS011;58897;51.960;5.582;2023-07-28T14:14:32;15.97;;;6.43;;
12986;SDS011;58897;51.960;5.582;2023-07-28T14:16:59;13.93;;;6.63;;
12986;SDS011;58897;51.960;5.582;2023-07-28T14:19:25;15.90;;;6.43;;
12986;SDS011;58897;51.960;5.582;2023-07-28T14:21:52;17.37;;;7.43;;
12986;SDS011;58897;51.960;5.582;2023-07-28T14:24:19;17.93;;;7.03;;
12986;SDS011;58897;51.960;5.582;2023-07-28T14:26:46;13.90;;;6.27;;
12986;SDS011;58897;51.960;5.582;2023-07-28T14:29:12;17.27;;;6.93;;
12986;SDS011;58897;51.960;5.582;2023-07-28T14:31:39;13.27;;;6.07;;
12986;SDS011;58897;51.960;5.582;2023-07-28T14:34:06;12.80;;;5.70;;
12986;SDS011;58897;51.960;5.582;2023-07-28T14:36:32;17.07;;;7.23;;
12986;SDS011;58897;51.960;5.582;2023-07-28T14:39:01;15.83;;;6.17;;
12986;SDS011;58897;51.960;5.582;2023-07-28T14:41:28;13.80;;;5.63;;